Wetterdaten: Woche 25.03.19 - 31.03.19 (KW13)
Datum Zeit Temp. Aussen Temp. o. S. +5cm Feuchte Auss Luftdruck Regen Sonnenschein Regendauer Solar Windben Empfang
25.03.2019 00:00 4,1 C 3,3 C 3,0 C 84 % 1021,4 hPa 0,0 l/m 0,00 h 0,00 h 0 W/m 4,9 km/h (1 Bft) 95,38 %
25.03.2019 01:00 4,0 C 3,5 C 3,0 C 85 % 1020,4 hPa 0,0 l/m 0,00 h 0,00 h 0 W/m 7,0 km/h (2 Bft) 98,69 %
25.03.2019 02:00 4,5 C 4,2 C 3,7 C 85 % 1019,5 hPa 0,0 l/m 0,00 h 0,00 h 0 W/m 11,5 km/h (2 Bft) 97,17 %
25.03.2019 03:00 5,4 C 5,1 C 4,7 C 82 % 1018,8 hPa 0,0 l/m 0,00 h 0,00 h 0 W/m 13,1 km/h (3 Bft) 99,00 %
25.03.2019 04:00 6,0 C 5,6 C 5,0 C 82 % 1018,0 hPa 0,0 l/m 0,00 h 0,03 h 0 W/m 16,3 km/h (3 Bft) 95,84 %
25.03.2019 05:00 5,5 C 4,3 C 3,8 C 88 % 1018,2 hPa 0,2 l/m 0,00 h 0,80 h 0 W/m 19,4 km/h (3 Bft) 97,55 %
25.03.2019 06:00 4,5 C 3,4 C 3,0 C 92 % 1018,4 hPa 0,0 l/m 0,00 h 0,03 h 9 W/m 12,0 km/h (2 Bft) 98,55 %
25.03.2019 07:00 4,6 C 4,4 C 3,6 C 93 % 1018,6 hPa 0,0 l/m 0,03 h 0,00 h 47 W/m 12,6 km/h (3 Bft) 97,91 %
25.03.2019 08:00 5,6 C 6,5 C 4,7 C 91 % 1018,7 hPa 0,2 l/m 0,23 h 0,47 h 116 W/m 21,0 km/h (4 Bft) 95,82 %
25.03.2019 09:00 7,1 C 9,7 C 7,5 C 83 % 1018,9 hPa 0,0 l/m 0,47 h 0,17 h 255 W/m 33,9 km/h (5 Bft) 98,54 %
25.03.2019 10:00 8,0 C 10,3 C 8,3 C 78 % 1019,5 hPa 0,0 l/m 0,53 h 0,13 h 340 W/m 35,4 km/h (5 Bft) 96,94 %
25.03.2019 11:00 8,2 C 12,5 C 7,3 C 81 % 1020,2 hPa 0,2 l/m 0,70 h 0,20 h 502 W/m 35,4 km/h (5 Bft) 96,00 %
25.03.2019 12:00 8,7 C 11,4 C 8,5 C 81 % 1020,4 hPa 0,8 l/m 0,43 h 0,33 h 352 W/m 32,2 km/h (5 Bft) 99,12 %
25.03.2019 13:00 8,0 C 10,7 C 9,0 C 84 % 1020,7 hPa 0,6 l/m 0,63 h 0,47 h 432 W/m 39,8 km/h (6 Bft) 97,62 %
25.03.2019 14:00 8,4 C 9,9 C 7,8 C 85 % 1020,4 hPa 0,0 l/m 0,27 h 0,40 h 288 W/m 32,0 km/h (5 Bft) 97,22 %
25.03.2019 15:00 9,4 C 10,8 C 8,8 C 80 % 1020,4 hPa 0,0 l/m 0,50 h 0,83 h 295 W/m 40,3 km/h (6 Bft) 97,08 %
25.03.2019 16:00 8,8 C 9,0 C 7,9 C 79 % 1021,0 hPa 0,0 l/m 0,33 h 0,50 h 188 W/m 42,6 km/h (6 Bft) 97,38 %
25.03.2019 17:00 8,4 C 8,1 C 7,3 C 84 % 1022,0 hPa 0,0 l/m 0,07 h 0,57 h 63 W/m 35,5 km/h (5 Bft) 98,22 %
25.03.2019 18:00 8,0 C 7,3 C 6,8 C 80 % 1023,1 hPa 0,0 l/m 0,00 h 0,23 h 9 W/m 36,5 km/h (5 Bft) 96,40 %
25.03.2019 19:00 7,6 C 6,9 C 6,4 C 79 % 1024,2 hPa 0,0 l/m 0,00 h 0,00 h 0 W/m 24,1 km/h (4 Bft) 98,01 %
25.03.2019 20:00 7,3 C 6,5 C 5,9 C 81 % 1025,0 hPa 0,0 l/m 0,00 h 0,00 h 0 W/m 23,7 km/h (4 Bft) 98,84 %
25.03.2019 21:00 6,7 C 5,8 C 5,3 C 82 % 1026,0 hPa 0,0 l/m 0,00 h 0,00 h 0 W/m 19,3 km/h (3 Bft) 95,46 %
25.03.2019 22:00 6,5 C 6,0 C 5,6 C 84 % 1026,9 hPa 0,0 l/m 0,00 h 0,00 h 0 W/m 18,9 km/h (3 Bft) 97,68 %
25.03.2019 23:00 6,4 C 5,6 C 5,2 C 84 % 1027,7 hPa 0,0 l/m 0,00 h 0,00 h 0 W/m 17,3 km/h (3 Bft) 98,51 %
26.03.2019 00:00 6,2 C 5,6 C 5,0 C 84 % 1028,2 hPa 0,0 l/m 0,00 h 0,00 h 0 W/m 15,7 km/h (3 Bft) 96,78 %
26.03.2019 01:00 6,0 C 5,6 C 5,0 C 83 % 1028,4 hPa 0,0 l/m 0,00 h 0,00 h 0 W/m 13,2 km/h (3 Bft) 96,94 %
26.03.2019 02:00 5,8 C 5,1 C 4,5 C 82 % 1028,4 hPa 0,0 l/m 0,00 h 0,00 h 0 W/m 8,4 km/h (2 Bft) 97,43 %
26.03.2019 03:00 5,7 C 5,0 C 4,4 C 83 % 1028,4 hPa 0,0 l/m 0,00 h 0,00 h 0 W/m 10,9 km/h (2 Bft) 97,86 %
26.03.2019 04:00 5,5 C 5,0 C 4,4 C 81 % 1028,5 hPa 0,0 l/m 0,00 h 0,00 h 0 W/m 10,8 km/h (2 Bft) 98,03 %
26.03.2019 05:00 5,5 C 4,7 C 4,4 C 83 % 1028,6 hPa 0,0 l/m 0,00 h 0,00 h 0 W/m 6,5 km/h (2 Bft) 97,26 %
26.03.2019 06:00 5,3 C 4,6 C 4,4 C 85 % 1028,6 hPa 0,0 l/m 0,00 h 0,00 h 8 W/m 7,7 km/h (2 Bft) 98,47 %
26.03.2019 07:00 5,3 C 5,3 C 4,8 C 85 % 1029,1 hPa 0,0 l/m 0,00 h 0,00 h 36 W/m 6,8 km/h (2 Bft) 97,86 %
26.03.2019 08:00 5,9 C 6,2 C 5,5 C 84 % 1029,4 hPa 0,0 l/m 0,00 h 0,13 h 82 W/m 8,2 km/h (2 Bft) 95,56 %
26.03.2019 09:00 7,1 C 8,9 C 7,6 C 81 % 1029,4 hPa 0,0 l/m 0,43 h 0,00 h 228 W/m 13,5 km/h (3 Bft) 98,81 %
26.03.2019 10:00 7,8 C 8,3 C 7,7 C 78 % 1029,6 hPa 0,0 l/m 0,13 h 0,00 h 160 W/m 17,4 km/h (3 Bft) 99,03 %
26.03.2019 11:00 8,6 C 12,3 C 9,7 C 77 % 1029,4 hPa 0,0 l/m 0,87 h 0,00 h 398 W/m 15,0 km/h (3 Bft) 94,43 %
26.03.2019 12:00 10,4 C 12,4 C 10,1 C 70 % 1029,2 hPa 0,0 l/m 0,47 h 0,00 h 307 W/m 14,6 km/h (3 Bft) 97,49 %
26.03.2019 13:00 9,3 C 10,6 C 9,9 C 73 % 1029,0 hPa 0,0 l/m 0,30 h 0,00 h 288 W/m 19,9 km/h (4 Bft) 96,35 %
26.03.2019 14:00 9,2 C 9,1 C 8,7 C 73 % 1028,7 hPa 0,0 l/m 0,00 h 0,03 h 125 W/m 19,4 km/h (3 Bft) 98,31 %
26.03.2019 15:00 9,1 C 9,3 C 9,0 C 75 % 1028,6 hPa 0,0 l/m 0,00 h 0,00 h 146 W/m 17,3 km/h (3 Bft) 98,84 %
26.03.2019 16:00 9,2 C 9,4 C 8,9 C 75 % 1028,4 hPa 0,0 l/m 0,00 h 0,00 h 117 W/m 15,1 km/h (3 Bft) 95,82 %
26.03.2019 17:00 9,1 C 8,9 C 8,5 C 74 % 1028,4 hPa 0,0 l/m 0,00 h 0,00 h 70 W/m 13,9 km/h (3 Bft) 97,16 %
26.03.2019 18:00 8,8 C 7,8 C 7,4 C 75 % 1028,4 hPa 0,0 l/m 0,00 h 0,00 h 10 W/m 3,8 km/h (1 Bft) 98,01 %
26.03.2019 19:00 8,3 C 7,2 C 6,9 C 77 % 1028,7 hPa 0,0 l/m 0,00 h 0,00 h 0 W/m 2,1 km/h (1 Bft) 97,30 %
26.03.2019 20:00 7,9 C 7,1 C 6,6 C 79 % 1029,0 hPa 0,0 l/m 0,00 h 0,00 h 0 W/m 1,3 km/h (1 Bft) 99,06 %
26.03.2019 21:00 7,6 C 6,7 C 6,1 C 80 % 1029,4 hPa 0,0 l/m 0,00 h 0,00 h 0 W/m 0,2 km/h (0 Bft) 95,23 %
26.03.2019 22:00 7,3 C 6,4 C 5,6 C 82 % 1029,5 hPa 0,0 l/m 0,00 h 0,00 h 0 W/m 0,3 km/h (0 Bft) 98,45 %
26.03.2019 23:00 7,0 C 6,1 C 5,6 C 83 % 1029,6 hPa 0,0 l/m 0,00 h 0,00 h 0 W/m 0,4 km/h (0 Bft) 99,43 %
27.03.2019 00:00 6,7 C 5,8 C 5,1 C 83 % 1029,5 hPa 0,0 l/m 0,00 h 0,00 h 0 W/m 0,2 km/h (0 Bft) 95,72 %
27.03.2019 01:00 6,3 C 5,4 C 4,9 C 85 % 1029,5 hPa 0,0 l/m 0,00 h 0,00 h 0 W/m 1,2 km/h (1 Bft) 97,72 %
27.03.2019 02:00 6,0 C 5,0 C 4,6 C 88 % 1029,5 hPa 0,0 l/m 0,00 h 0,00 h 0 W/m 1,3 km/h (1 Bft) 97,72 %
27.03.2019 03:00 5,5 C 3,9 C 3,3 C 89 % 1029,5 hPa 0,0 l/m 0,00 h 0,00 h 0 W/m 0,2 km/h (0 Bft) 98,01 %
27.03.2019 04:00 4,5 C 2,7 C 1,9 C 89 % 1029,4 hPa 0,0 l/m 0,00 h 0,00 h 0 W/m 0,0 km/h (0 Bft) 97,94 %
27.03.2019 05:00 3,7 C 2,5 C 1,8 C 90 % 1030,0 hPa 0,0 l/m 0,00 h 0,00 h 0 W/m 0,0 km/h (0 Bft) 98,04 %
27.03.2019 06:00 3,7 C 2,9 C 2,2 C 92 % 1030,3 hPa 0,0 l/m 0,00 h 0,00 h 11 W/m 0,4 km/h (0 Bft) 95,89 %
27.03.2019 07:00 3,7 C 3,6 C 2,5 C 93 % 1030,7 hPa 0,0 l/m 0,00 h 0,00 h 36 W/m 0,2 km/h (0 Bft) 98,42 %
27.03.2019 08:00 4,9 C 8,2 C 5,0 C 95 % 1031,0 hPa 0,0 l/m 0,17 h 0,00 h 100 W/m 1,2 km/h (1 Bft) 98,36 %
27.03.2019 09:00 7,7 C 13,6 C 10,8 C 94 % 1031,2 hPa 0,0 l/m 0,70 h 0,00 h 357 W/m 7,1 km/h (2 Bft) 95,42 %
27.03.2019 10:00 10,0 C 13,9 C 11,8 C 77 % 1031,4 hPa 0,0 l/m 0,47 h 0,00 h 356 W/m 7,6 km/h (2 Bft) 97,50 %
27.03.2019 11:00 10,2 C 10,7 C 9,8 C 73 % 1031,6 hPa 0,0 l/m 0,00 h 0,00 h 159 W/m 7,4 km/h (2 Bft) 94,39 %
27.03.2019 12:00 11,1 C 13,7 C 11,8 C 68 % 1031,7 hPa 0,0 l/m 0,23 h 0,00 h 306 W/m 10,7 km/h (2 Bft) 99,72 %
27.03.2019 13:00 11,7 C 14,5 C 13,0 C 66 % 1031,4 hPa 0,0 l/m 0,67 h 0,00 h 383 W/m 9,8 km/h (2 Bft) 98,28 %
27.03.2019 14:00 12,5 C 14,7 C 12,9 C 64 % 1031,2 hPa 0,0 l/m 0,47 h 0,00 h 315 W/m 10,2 km/h (2 Bft) 96,06 %
27.03.2019 15:00 11,8 C 12,2 C 11,7 C 67 % 1031,2 hPa 0,0 l/m 0,00 h 0,00 h 173 W/m 8,9 km/h (2 Bft) 98,01 %
27.03.2019 16:00 11,8 C 12,3 C 11,5 C 68 % 1031,1 hPa 0,0 l/m 0,27 h 0,00 h 167 W/m 6,4 km/h (2 Bft) 96,08 %
27.03.2019 17:00 11,6 C 11,4 C 10,8 C 68 % 1031,0 hPa 0,0 l/m 0,30 h 0,00 h 105 W/m 3,6 km/h (1 Bft) 98,01 %
27.03.2019 18:00 10,9 C 9,7 C 9,1 C 70 % 1031,2 hPa 0,0 l/m 0,17 h 0,00 h 30 W/m 1,3 km/h (1 Bft) 97,27 %
27.03.2019 19:00 10,2 C 9,4 C 8,8 C 73 % 1031,5 hPa 0,0 l/m 0,00 h 0,00 h 5 W/m 0,5 km/h (0 Bft) 97,72 %
27.03.2019 20:00 9,9 C 9,2 C 8,7 C 76 % 1031,9 hPa 0,0 l/m 0,00 h 0,00 h 0 W/m 1,9 km/h (1 Bft) 97,58 %
27.03.2019 21:00 9,6 C 8,6 C 8,1 C 77 % 1032,0 hPa 0,0 l/m 0,00 h 0,00 h 0 W/m 1,0 km/h (0 Bft) 95,51 %
27.03.2019 22:00 9,2 C 8,3 C 7,8 C 78 % 1032,0 hPa 0,0 l/m 0,00 h 0,00 h 0 W/m 0,1 km/h (0 Bft) 98,93 %
27.03.2019 23:00 8,9 C 8,1 C 7,5 C 80 % 1032,1 hPa 0,0 l/m 0,00 h 0,00 h 0 W/m 0,1 km/h (0 Bft) 98,93 %
28.03.2019 00:00 8,7 C 7,8 C 7,2 C 82 % 1032,3 hPa 0,0 l/m 0,00 h 0,00 h 0 W/m 0,2 km/h (0 Bft) 94,81 %
28.03.2019 01:00 8,4 C 7,2 C 6,7 C 83 % 1032,3 hPa 0,0 l/m 0,00 h 0,00 h 0 W/m 0,0 km/h (0 Bft) 98,72 %
28.03.2019 02:00 8,1 C 7,2 C 6,7 C 84 % 1032,1 hPa 0,0 l/m 0,00 h 0,00 h 0 W/m 0,0 km/h (0 Bft) 97,65 %
28.03.2019 03:00 7,9 C 7,2 C 6,7 C 86 % 1031,9 hPa 0,0 l/m 0,00 h 0,00 h 0 W/m 0,1 km/h (0 Bft) 97,79 %
28.03.2019 04:00 7,8 C 7,2 C 6,7 C 86 % 1032,1 hPa 0,0 l/m 0,00 h 0,00 h 0 W/m 0,0 km/h (0 Bft) 96,26 %
28.03.2019 05:00 7,7 C 7,2 C 6,6 C 86 % 1032,4 hPa 0,0 l/m 0,00 h 0,00 h 0 W/m 0,2 km/h (0 Bft) 98,40 %
28.03.2019 06:00 7,6 C 6,9 C 6,2 C 87 % 1032,7 hPa 0,0 l/m 0,00 h 0,00 h 6 W/m 0,0 km/h (0 Bft) 97,49 %
28.03.2019 07:00 7,7 C 7,9 C 7,3 C 88 % 1032,8 hPa 0,0 l/m 0,00 h 0,00 h 50 W/m 0,2 km/h (0 Bft) 97,53 %
28.03.2019 08:00 8,5 C 9,5 C 8,9 C 87 % 1033,0 hPa 0,0 l/m 0,00 h 0,00 h 95 W/m 0,5 km/h (0 Bft) 97,16 %
28.03.2019 09:00 9,4 C 9,7 C 9,1 C 86 % 1033,3 hPa 0,0 l/m 0,00 h 0,00 h 111 W/m 5,4 km/h (1 Bft) 98,86 %
28.03.2019 10:00 10,1 C 11,5 C 10,9 C 84 % 1033,6 hPa 0,0 l/m 0,00 h 0,00 h 177 W/m 7,2 km/h (2 Bft) 97,16 %
28.03.2019 11:00 11,4 C 13,7 C 12,6 C 79 % 1033,6 hPa 0,0 l/m 0,57 h 0,00 h 303 W/m 7,6 km/h (2 Bft) 95,93 %
28.03.2019 12:00 13,2 C 17,4 C 15,2 C 71 % 1033,4 hPa 0,0 l/m 1,00 h 0,00 h 436 W/m 9,1 km/h (2 Bft) 99,70 %
28.03.2019 13:00 14,1 C 17,4 C 15,3 C 65 % 1033,2 hPa 0,0 l/m 0,90 h 0,00 h 410 W/m 7,5 km/h (2 Bft) 96,70 %
28.03.2019 14:00 14,5 C 17,1 C 14,7 C 64 % 1032,8 hPa 0,0 l/m 0,43 h 0,00 h 385 W/m 7,7 km/h (2 Bft) 99,10 %
28.03.2019 15:00 13,9 C 14,0 C 13,5 C 64 % 1032,4 hPa 0,0 l/m 0,00 h 0,00 h 159 W/m 6,5 km/h (2 Bft) 96,34 %
28.03.2019 16:00 13,4 C 13,2 C 13,1 C 64 % 1032,1 hPa 0,0 l/m 0,00 h 0,00 h 116 W/m 4,3 km/h (1 Bft) 97,04 %
28.03.2019 17:00 12,9 C 12,2 C 11,8 C 68 % 1032,0 hPa 0,0 l/m 0,00 h 0,00 h 45 W/m 3,7 km/h (1 Bft) 99,58 %
28.03.2019 18:00 12,2 C 11,1 C 10,7 C 72 % 1032,0 hPa 0,0 l/m 0,00 h 0,00 h 14 W/m 1,3 km/h (1 Bft) 96,26 %
28.03.2019 19:00 11,5 C 9,9 C 9,3 C 74 % 1032,1 hPa 0,0 l/m 0,00 h 0,00 h 0 W/m 0,7 km/h (0 Bft) 97,85 %
28.03.2019 20:00 10,3 C 8,2 C 7,3 C 75 % 1032,1 hPa 0,0 l/m 0,00 h 0,00 h 0 W/m 0,2 km/h (0 Bft) 96,45 %
28.03.2019 21:00 8,7 C 6,3 C 5,3 C 79 % 1032,0 hPa 0,0 l/m 0,00 h 0,00 h 0 W/m 0,0 km/h (0 Bft) 98,03 %
28.03.2019 22:00 7,2 C 5,5 C 4,3 C 82 % 1032,1 hPa 0,0 l/m 0,00 h 0,00 h 0 W/m 0,2 km/h (0 Bft) 96,63 %
28.03.2019 23:00 6,3 C 5,0 C 3,8 C 85 % 1032,1 hPa 0,0 l/m 0,00 h 0,00 h 0 W/m 0,0 km/h (0 Bft) 99,00 %
29.03.2019 00:00 5,8 C 4,4 C 3,2 C 87 % 1032,0 hPa 0,0 l/m 0,00 h 0,00 h 0 W/m 0,0 km/h (0 Bft) 96,35 %
29.03.2019 01:00 5,2 C 3,7 C 2,6 C 87 % 1031,8 hPa 0,0 l/m 0,00 h 0,00 h 0 W/m 0,0 km/h (0 Bft) 96,86 %
29.03.2019 02:00 4,4 C 3,5 C 2,2 C 88 % 1031,1 hPa 0,0 l/m 0,00 h 0,00 h 0 W/m 0,0 km/h (0 Bft) 98,03 %
29.03.2019 03:00 4,1 C 3,4 C 1,7 C 90 % 1030,6 hPa 0,0 l/m 0,00 h 0,00 h 0 W/m 0,0 km/h (0 Bft) 99,15 %
29.03.2019 04:00 3,8 C 2,5 C 1,4 C 92 % 1030,6 hPa 0,0 l/m 0,00 h 0,00 h 0 W/m 0,0 km/h (0 Bft) 95,17 %
29.03.2019 05:00 3,1 C 1,7 C 1,0 C 92 % 1030,6 hPa 0,0 l/m 0,00 h 0,00 h 0 W/m 0,0 km/h (0 Bft) 98,52 %
29.03.2019 06:00 2,8 C 2,2 C 0,9 C 93 % 1030,4 hPa 0,0 l/m 0,00 h 0,00 h 12 W/m 0,0 km/h (0 Bft) 97,64 %
29.03.2019 07:00 3,1 C 3,7 C 2,3 C 94 % 1030,3 hPa 0,0 l/m 0,00 h 0,00 h 31 W/m 0,6 km/h (0 Bft) 98,08 %
29.03.2019 08:00 6,0 C 9,0 C 6,4 C 96 % 1030,2 hPa 0,0 l/m 0,13 h 0,00 h 84 W/m 8,9 km/h (2 Bft) 95,94 %
29.03.2019 09:00 10,4 C 15,1 C 15,0 C 85 % 1030,2 hPa 0,0 l/m 1,00 h 0,00 h 454 W/m 15,1 km/h (3 Bft) 98,08 %
29.03.2019 10:00 13,5 C 18,1 C 15,2 C 73 % 1029,8 hPa 0,0 l/m 1,00 h 0,00 h 595 W/m 17,0 km/h (3 Bft) 98,64 %
29.03.2019 11:00 15,4 C 20,0 C 14,7 C 68 % 1029,2 hPa 0,0 l/m 1,00 h 0,00 h 692 W/m 17,2 km/h (3 Bft) 97,22 %
29.03.2019 12:00 16,8 C 22,1 C 20,0 C 61 % 1028,4 hPa 0,0 l/m 1,00 h 0,00 h 737 W/m 16,5 km/h (3 Bft) 99,71 %
29.03.2019 13:00 18,1 C 23,7 C 23,5 C 57 % 1027,5 hPa 0,0 l/m 1,00 h 0,00 h 719 W/m 11,7 km/h (2 Bft) 97,03 %
29.03.2019 14:00 18,5 C 22,5 C 18,3 C 55 % 1026,6 hPa 0,0 l/m 1,00 h 0,00 h 654 W/m 13,1 km/h (3 Bft) 95,95 %
29.03.2019 15:00 18,7 C 22,1 C 18,4 C 56 % 1025,7 hPa 0,0 l/m 1,00 h 0,00 h 529 W/m 11,3 km/h (2 Bft) 99,71 %
29.03.2019 16:00 19,4 C 21,3 C 18,4 C 54 % 1024,8 hPa 0,0 l/m 1,00 h 0,00 h 372 W/m 8,9 km/h (2 Bft) 96,41 %
29.03.2019 17:00 18,4 C 17,4 C 16,5 C 55 % 1024,2 hPa 0,0 l/m 0,10 h 0,00 h 59 W/m 9,1 km/h (2 Bft) 97,93 %
29.03.2019 18:00 17,4 C 16,2 C 14,8 C 58 % 1023,8 hPa 0,0 l/m 0,00 h 0,00 h 19 W/m 6,9 km/h (2 Bft) 99,37 %
29.03.2019 19:00 15,3 C 12,1 C 10,3 C 65 % 1023,8 hPa 0,0 l/m 0,00 h 0,00 h 5 W/m 0,0 km/h (0 Bft) 95,53 %
29.03.2019 20:00 12,3 C 9,3 C 8,1 C 75 % 1023,9 hPa 0,0 l/m 0,00 h 0,00 h 0 W/m 0,0 km/h (0 Bft) 97,08 %
29.03.2019 21:00 10,3 C 8,0 C 6,8 C 80 % 1023,8 hPa 0,0 l/m 0,00 h 0,00 h 0 W/m 0,0 km/h (0 Bft) 97,65 %
29.03.2019 22:00 9,0 C 7,0 C 5,7 C 82 % 1023,6 hPa 0,0 l/m 0,00 h 0,00 h 0 W/m 0,1 km/h (0 Bft) 97,79 %
29.03.2019 23:00 7,8 C 6,3 C 4,9 C 85 % 1023,3 hPa 0,0 l/m 0,00 h 0,00 h 0 W/m 0,0 km/h (0 Bft) 97,72 %
30.03.2019 00:00 7,2 C 6,8 C 4,4 C 88 % 1022,9 hPa 0,0 l/m 0,00 h 0,00 h 0 W/m 0,7 km/h (0 Bft) 94,53 %
30.03.2019 01:00 7,7 C 7,9 C 6,2 C 88 % 1022,4 hPa 0,0 l/m 0,00 h 0,00 h 0 W/m 4,9 km/h (1 Bft) 96,72 %
30.03.2019 02:00 8,1 C 7,5 C 6,6 C 85 % 1021,8 hPa 0,0 l/m 0,00 h 0,00 h 0 W/m 7,7 km/h (2 Bft) 97,22 %
30.03.2019 03:00 7,8 C 7,0 C 6,1 C 84 % 1021,4 hPa 0,0 l/m 0,00 h 0,00 h 0 W/m 9,0 km/h (2 Bft) 99,64 %
30.03.2019 04:00 7,4 C 6,7 C 5,8 C 86 % 1021,1 hPa 0,0 l/m 0,00 h 0,00 h 0 W/m 10,1 km/h (2 Bft) 95,59 %
30.03.2019 05:00 7,0 C 6,3 C 5,6 C 87 % 1020,7 hPa 0,0 l/m 0,00 h 0,00 h 0 W/m 9,2 km/h (2 Bft) 97,55 %
30.03.2019 06:00 6,9 C 6,5 C 5,8 C 87 % 1020,4 hPa 0,0 l/m 0,00 h 0,00 h 15 W/m 11,7 km/h (2 Bft) 98,38 %
30.03.2019 07:00 7,5 C 7,4 C 6,7 C 86 % 1020,2 hPa 0,0 l/m 0,00 h 0,00 h 36 W/m 18,2 km/h (3 Bft) 97,15 %
30.03.2019 08:00 8,8 C 11,0 C 8,5 C 84 % 1020,4 hPa 0,0 l/m 0,13 h 0,00 h 93 W/m 14,3 km/h (3 Bft) 97,30 %
30.03.2019 09:00 12,7 C 17,6 C 17,5 C 74 % 1020,3 hPa 0,0 l/m 1,00 h 0,00 h 459 W/m 13,2 km/h (3 Bft) 98,93 %
30.03.2019 10:00 16,3 C 21,7 C 17,9 C 62 % 1020,0 hPa 0,0 l/m 1,00 h 0,00 h 593 W/m 13,8 km/h (3 Bft) 97,59 %
30.03.2019 11:00 18,7 C 24,2 C 17,8 C 53 % 1019,6 hPa 0,0 l/m 1,00 h 0,00 h 690 W/m 14,4 km/h (3 Bft) 96,58 %
30.03.2019 12:00 19,9 C 24,3 C 21,3 C 47 % 1019,3 hPa 0,0 l/m 0,97 h 0,00 h 745 W/m 16,9 km/h (3 Bft) 96,08 %
30.03.2019 13:00 20,2 C 24,3 C 23,8 C 46 % 1018,8 hPa 0,0 l/m 0,93 h 0,00 h 679 W/m 16,0 km/h (3 Bft) 99,19 %
30.03.2019 14:00 20,6 C 24,8 C 20,3 C 46 % 1018,5 hPa 0,0 l/m 0,90 h 0,00 h 614 W/m 13,6 km/h (3 Bft) 97,46 %
30.03.2019 15:00 20,6 C 23,7 C 19,7 C 46 % 1018,2 hPa 0,0 l/m 0,97 h 0,00 h 499 W/m 13,2 km/h (3 Bft) 97,20 %
30.03.2019 16:00 20,3 C 21,9 C 19,2 C 46 % 1017,8 hPa 0,0 l/m 1,00 h 0,00 h 372 W/m 12,7 km/h (3 Bft) 97,36 %
30.03.2019 17:00 19,0 C 17,9 C 16,8 C 49 % 1017,6 hPa 0,0 l/m 0,13 h 0,00 h 90 W/m 8,0 km/h (2 Bft) 96,94 %
30.03.2019 18:00 17,4 C 15,5 C 14,0 C 55 % 1017,7 hPa 0,0 l/m 0,00 h 0,00 h 28 W/m 2,3 km/h (1 Bft) 98,31 %
30.03.2019 19:00 15,2 C 12,6 C 10,9 C 62 % 1017,9 hPa 0,0 l/m 0,00 h 0,00 h 3 W/m 0,0 km/h (0 Bft) 98,93 %
30.03.2019 20:00 13,2 C 10,9 C 9,5 C 67 % 1018,3 hPa 0,0 l/m 0,00 h 0,00 h 0 W/m 0,0 km/h (0 Bft) 93,95 %
30.03.2019 21:00 11,8 C 10,4 C 8,8 C 72 % 1018,5 hPa 0,0 l/m 0,00 h 0,00 h 0 W/m 0,0 km/h (0 Bft) 98,22 %
30.03.2019 22:00 10,9 C 8,9 C 7,7 C 73 % 1018,7 hPa 0,0 l/m 0,00 h 0,00 h 0 W/m 0,1 km/h (0 Bft) 98,35 %
30.03.2019 23:00 10,0 C 8,7 C 6,7 C 79 % 1018,8 hPa 0,0 l/m 0,00 h 0,00 h 0 W/m 0,1 km/h (0 Bft) 97,58 %
31.03.2019 00:00 9,2 C 7,8 C 6,1 C 82 % 1018,6 hPa 0,0 l/m 0,00 h 0,00 h 0 W/m 0,0 km/h (0 Bft) 97,07 %
31.03.2019 01:00 8,3 C 6,6 C 5,2 C 83 % 1018,5 hPa 0,0 l/m 0,00 h 0,00 h 0 W/m 0,0 km/h (0 Bft) 96,66 %
31.03.2019 03:00 7,9 C 7,5 C 6,0 C 88 % 1018,6 hPa 0,0 l/m 0,00 h 0,00 h 0 W/m 0,4 km/h (0 Bft) 98,26 %
31.03.2019 04:00 8,3 C 7,7 C 6,2 C 91 % 1018,7 hPa 0,0 l/m 0,00 h 0,00 h 0 W/m 0,9 km/h (0 Bft) 97,15 %
31.03.2019 05:00 8,1 C 7,1 C 5,8 C 91 % 1018,7 hPa 0,0 l/m 0,00 h 0,00 h 0 W/m 0,4 km/h (0 Bft) 98,57 %
31.03.2019 06:00 7,8 C 7,1 C 5,9 C 91 % 1019,1 hPa 0,0 l/m 0,00 h 0,00 h 0 W/m 1,1 km/h (1 Bft) 95,50 %
31.03.2019 07:00 7,6 C 6,7 C 5,6 C 92 % 1019,5 hPa 0,0 l/m 0,00 h 0,00 h 16 W/m 0,3 km/h (0 Bft) 98,62 %
31.03.2019 08:00 7,8 C 8,5 C 7,5 C 93 % 1020,1 hPa 0,0 l/m 0,00 h 0,00 h 62 W/m 3,6 km/h (1 Bft) 97,75 %
31.03.2019 09:00 8,8 C 8,6 C 8,1 C 89 % 1020,9 hPa 0,0 l/m 0,00 h 0,27 h 40 W/m 13,2 km/h (3 Bft) 95,86 %
31.03.2019 10:00 8,1 C 6,7 C 6,1 C 90 % 1021,4 hPa 0,2 l/m 0,00 h 0,60 h 32 W/m 6,5 km/h (2 Bft) 98,69 %
31.03.2019 11:00 7,7 C 7,0 C 6,4 C 92 % 1021,8 hPa 0,0 l/m 0,00 h 0,23 h 68 W/m 7,5 km/h (2 Bft) 98,56 %
31.03.2019 12:00 8,7 C 10,3 C 9,4 C 90 % 1022,1 hPa 0,0 l/m 0,07 h 0,00 h 221 W/m 13,9 km/h (3 Bft) 97,39 %
31.03.2019 13:00 11,8 C 18,0 C 15,3 C 80 % 1022,0 hPa 0,0 l/m 0,93 h 0,00 h 667 W/m 18,0 km/h (3 Bft) 97,21 %
31.03.2019 14:00 14,2 C 19,9 C 18,7 C 71 % 1021,8 hPa 0,0 l/m 1,00 h 0,00 h 669 W/m 17,7 km/h (3 Bft) 96,37 %
31.03.2019 15:00 14,6 C 19,0 C 14,8 C 67 % 1021,5 hPa 0,0 l/m 1,00 h 0,00 h 597 W/m 18,5 km/h (3 Bft) 97,93 %
31.03.2019 16:00 14,6 C 17,6 C 14,5 C 65 % 1021,2 hPa 0,0 l/m 1,00 h 0,00 h 501 W/m 17,9 km/h (3 Bft) 98,74 %
31.03.2019 17:00 13,8 C 15,1 C 13,3 C 66 % 1021,1 hPa 0,0 l/m 1,00 h 0,00 h 344 W/m 17,4 km/h (3 Bft) 96,23 %
31.03.2019 18:00 11,8 C 11,1 C 10,4 C 69 % 1021,2 hPa 0,0 l/m 0,17 h 0,00 h 93 W/m 16,0 km/h (3 Bft) 97,80 %
31.03.2019 19:00 10,4 C 9,5 C 9,0 C 73 % 1021,4 hPa 0,0 l/m 0,13 h 0,00 h 33 W/m 12,0 km/h (2 Bft) 97,75 %
31.03.2019 20:00 9,4 C 7,8 C 7,3 C 75 % 1021,7 hPa 0,0 l/m 0,00 h 0,00 h 5 W/m 7,5 km/h (2 Bft) 98,02 %
31.03.2019 21:00 8,4 C 7,5 C 6,9 C 75 % 1022,0 hPa 0,0 l/m 0,00 h 0,00 h 0 W/m 9,5 km/h (2 Bft) 97,87 %
31.03.2019 22:00 7,7 C 6,6 C 5,8 C 74 % 1022,4 hPa 0,0 l/m 0,00 h 0,00 h 0 W/m 7,8 km/h (2 Bft) 96,96 %
31.03.2019 23:00 6,9 C 5,9 C 5,1 C 73 % 1022,6 hPa 0,0 l/m 0,00 h 0,00 h 0 W/m 9,1 km/h (2 Bft) 96,58 %
Min-Datum _ 29.03.19 29.03.19 29.03.19 30.03.19 30.03.19 - - - - 25.03.19 30.03.19
_ Min-Zeit 06:08 04:58 05:50 12:36 17:32 - - - - 00:00 00:02
Minimum _ 2,7 C 1,7 C 0,6 C 44 % 1017,5 hPa - - - - 0,0 km/h (0 Bft) 10,53 %
Max-Datum _ 30.03.19 30.03.19 29.03.19 29.03.19 28.03.19 25.03.19 25.03.19 25.03.19 25.03.19 25.03.19 25.03.19
_ Max-Zeit 14:20 14:04 12:52 08:44 10:28 12:44 12:08 05:10 12:08 15:26 01:12
Maximum _ 20,9 C 27,2 C 27,2 C 97 % 1033,8 hPa 0,8 l/m 0,07 h 0,08 h 878 W/m 64,4 km/h
NW (8 Bft)
100,00 %
Durchschnitt _ 9,5 C 9,8 C 8,5 C 78 % 1026,0 hPa #2,2 l/m #34:18 h #6:26 h 241 W/m 9,1 km/h (2 Bft) 97,46 %
© 2019 W. Hausmann